sensor_id;sensor_type;location;lat;lon;timestamp;temperature;humidity
46652;DHT22;32377;52.182;5.398;2022-11-20T00:00:06;-2.40;99.90
46652;DHT22;32377;52.182;5.398;2022-11-20T00:02:31;-2.40;99.90
46652;DHT22;32377;52.182;5.398;2022-11-20T00:04:57;-2.40;99.90
46652;DHT22;32377;52.182;5.398;2022-11-20T00:07:23;-2.40;99.90
46652;DHT22;32377;52.182;5.398;2022-11-20T00:09:48;-2.50;99.90
46652;DHT22;32377;52.182;5.398;2022-11-20T00:12:14;-2.50;99.90
46652;DHT22;32377;52.182;5.398;2022-11-20T00:14:39;-2.50;99.90
46652;DHT22;32377;52.182;5.398;2022-11-20T00:17:06;-2.60;99.90
46652;DHT22;32377;52.182;5.398;2022-11-20T00:19:32;-2.60;99.90
46652;DHT22;32377;52.182;5.398;2022-11-20T00:21:58;-2.60;99.90
46652;DHT22;32377;52.182;5.398;2022-11-20T00:24:23;-2.60;99.90
46652;DHT22;32377;52.182;5.398;2022-11-20T00:26:49;-2.60;99.90
46652;DHT22;32377;52.182;5.398;2022-11-20T00:29:14;-2.60;99.90
46652;DHT22;32377;52.182;5.398;2022-11-20T00:31:40;-2.60;99.90
46652;DHT22;32377;52.182;5.398;2022-11-20T00:34:05;-2.70;99.90
46652;DHT22;32377;52.182;5.398;2022-11-20T00:36:33;-2.70;99.90
46652;DHT22;32377;52.182;5.398;2022-11-20T00:38:59;-2.70;99.90
46652;DHT22;32377;52.182;5.398;2022-11-20T00:41:26;-2.70;99.90
46652;DHT22;32377;52.182;5.398;2022-11-20T00:43:53;-2.70;99.90
46652;DHT22;32377;52.182;5.398;2022-11-20T00:46:21;-2.70;99.90
46652;DHT22;32377;52.182;5.398;2022-11-20T00:48:48;-2.80;99.90
46652;DHT22;32377;52.182;5.398;2022-11-20T00:51:16;-2.70;99.90
46652;DHT22;32377;52.182;5.398;2022-11-20T00:53:42;-2.80;99.90
46652;DHT22;32377;52.182;5.398;2022-11-20T00:56:13;-2.80;99.90
46652;DHT22;32377;52.182;5.398;2022-11-20T00:58:41;-2.80;99.90
46652;DHT22;32377;52.182;5.398;2022-11-20T01:03:34;-2.80;99.90
46652;DHT22;32377;52.182;5.398;2022-11-20T01:06:01;-2.70;99.90
46652;DHT22;32377;52.182;5.398;2022-11-20T01:08:33;-2.70;99.90
46652;DHT22;32377;52.182;5.398;2022-11-20T01:11:29;-2.70;99.90
46652;DHT22;32377;52.182;5.398;2022-11-20T01:13:56;-2.70;99.90
46652;DHT22;32377;52.182;5.398;2022-11-20T01:16:24;-2.80;99.90
46652;DHT22;32377;52.182;5.398;2022-11-20T01:18:52;-2.80;99.90
46652;DHT22;32377;52.182;5.398;2022-11-20T01:21:37;-2.80;99.90
46652;DHT22;32377;52.182;5.398;2022-11-20T01:24:05;-2.80;99.90
46652;DHT22;32377;52.182;5.398;2022-11-20T01:26:34;-2.80;99.90
46652;DHT22;32377;52.182;5.398;2022-11-20T01:29:00;-2.80;99.90
46652;DHT22;32377;52.182;5.398;2022-11-20T01:31:29;-2.90;99.90
46652;DHT22;32377;52.182;5.398;2022-11-20T01:33:57;-2.90;99.90
46652;DHT22;32377;52.182;5.398;2022-11-20T01:36:25;-2.90;99.90
46652;DHT22;32377;52.182;5.398;2022-11-20T01:38:55;-2.90;99.90
46652;DHT22;32377;52.182;5.398;2022-11-20T01:41:22;-2.90;99.90
46652;DHT22;32377;52.182;5.398;2022-11-20T01:44:06;-2.80;99.90
46652;DHT22;32377;52.182;5.398;2022-11-20T01:46:37;-2.80;99.90
46652;DHT22;32377;52.182;5.398;2022-11-20T01:49:24;-2.90;99.90
46652;DHT22;32377;52.182;5.398;2022-11-20T01:52:00;-2.90;99.90
46652;DHT22;32377;52.182;5.398;2022-11-20T01:54:40;-3.00;99.90
46652;DHT22;32377;52.182;5.398;2022-11-20T01:57:09;-3.00;99.90
46652;DHT22;32377;52.182;5.398;2022-11-20T01:59:43;-3.10;99.90
46652;DHT22;32377;52.182;5.398;2022-11-20T02:02:09;-3.10;99.90
46652;DHT22;32377;52.182;5.398;2022-11-20T02:04:35;-3.10;99.90
46652;DHT22;32377;52.182;5.398;2022-11-20T02:07:02;-3.10;99.90
46652;DHT22;32377;52.182;5.398;2022-11-20T02:09:29;-3.20;99.90
46652;DHT22;32377;52.182;5.398;2022-11-20T02:11:55;-3.20;99.90
46652;DHT22;32377;52.182;5.398;2022-11-20T02:14:22;-3.20;99.90
46652;DHT22;32377;52.182;5.398;2022-11-20T02:16:49;-3.30;99.90
46652;DHT22;32377;52.182;5.398;2022-11-20T02:19:26;-3.30;99.90
46652;DHT22;32377;52.182;5.398;2022-11-20T02:22:05;-3.20;99.90
46652;DHT22;32377;52.182;5.398;2022-11-20T02:24:33;-3.20;99.90
46652;DHT22;32377;52.182;5.398;2022-11-20T02:29:37;-3.30;99.90
46652;DHT22;32377;52.182;5.398;2022-11-20T02:32:03;-3.30;99.90
46652;DHT22;32377;52.182;5.398;2022-11-20T02:34:29;-3.30;99.90
46652;DHT22;32377;52.182;5.398;2022-11-20T02:36:55;-3.30;99.90
46652;DHT22;32377;52.182;5.398;2022-11-20T02:39:24;-3.30;99.90
46652;DHT22;32377;52.182;5.398;2022-11-20T02:41:52;-3.30;99.90
46652;DHT22;32377;52.182;5.398;2022-11-20T02:44:18;-3.30;99.90
46652;DHT22;32377;52.182;5.398;2022-11-20T02:46:43;-3.30;99.90
46652;DHT22;32377;52.182;5.398;2022-11-20T02:49:09;-3.30;99.90
46652;DHT22;32377;52.182;5.398;2022-11-20T02:51:34;-3.30;99.90
46652;DHT22;32377;52.182;5.398;2022-11-20T02:54:00;-3.30;99.90
46652;DHT22;32377;52.182;5.398;2022-11-20T02:56:25;-3.30;99.90
46652;DHT22;32377;52.182;5.398;2022-11-20T02:58:51;-3.40;99.90
46652;DHT22;32377;52.182;5.398;2022-11-20T03:01:17;-3.30;99.90
46652;DHT22;32377;52.182;5.398;2022-11-20T03:03:42;-3.40;99.90
46652;DHT22;32377;52.182;5.398;2022-11-20T03:06:08;-3.40;99.90
46652;DHT22;32377;52.182;5.398;2022-11-20T03:08:34;-3.40;99.90
46652;DHT22;32377;52.182;5.398;2022-11-20T03:11:07;-3.40;99.90
46652;DHT22;32377;52.182;5.398;2022-11-20T03:13:34;-3.40;99.90
46652;DHT22;32377;52.182;5.398;2022-11-20T03:16:08;-3.50;99.90
46652;DHT22;32377;52.182;5.398;2022-11-20T03:18:33;-3.50;99.90
46652;DHT22;32377;52.182;5.398;2022-11-20T03:20:59;-3.50;99.90
46652;DHT22;32377;52.182;5.398;2022-11-20T03:23:25;-3.50;99.90
46652;DHT22;32377;52.182;5.398;2022-11-20T03:25:51;-3.50;99.90
46652;DHT22;32377;52.182;5.398;2022-11-20T03:28:16;-3.60;99.90
46652;DHT22;32377;52.182;5.398;2022-11-20T03:30:42;-3.60;99.90
46652;DHT22;32377;52.182;5.398;2022-11-20T03:33:07;-3.50;99.90
46652;DHT22;32377;52.182;5.398;2022-11-20T03:35:33;-3.50;99.90
46652;DHT22;32377;52.182;5.398;2022-11-20T03:37:58;-3.50;99.90
46652;DHT22;32377;52.182;5.398;2022-11-20T03:40:24;-3.50;99.90
46652;DHT22;32377;52.182;5.398;2022-11-20T03:42:49;-3.50;99.90
46652;DHT22;32377;52.182;5.398;2022-11-20T03:45:18;-3.50;99.90
46652;DHT22;32377;52.182;5.398;2022-11-20T03:47:44;-3.50;99.90
46652;DHT22;32377;52.182;5.398;2022-11-20T03:50:12;-3.60;99.90
46652;DHT22;32377;52.182;5.398;2022-11-20T03:52:39;-3.60;99.90
46652;DHT22;32377;52.182;5.398;2022-11-20T03:55:05;-3.60;99.90
46652;DHT22;32377;52.182;5.398;2022-11-20T03:57:31;-3.60;99.90
46652;DHT22;32377;52.182;5.398;2022-11-20T03:59:56;-3.60;99.90
46652;DHT22;32377;52.182;5.398;2022-11-20T04:02:22;-3.70;99.90
46652;DHT22;32377;52.182;5.398;2022-11-20T04:04:47;-3.60;99.90
46652;DHT22;32377;52.182;5.398;2022-11-20T04:07:13;-3.60;99.90
46652;DHT22;32377;52.182;5.398;2022-11-20T04:09:38;-3.70;99.90
46652;DHT22;32377;52.182;5.398;2022-11-20T04:12:04;-3.70;99.90
46652;DHT22;32377;52.182;5.398;2022-11-20T04:14:30;-3.70;99.90
46652;DHT22;32377;52.182;5.398;2022-11-20T04:16:55;-3.70;99.90
46652;DHT22;32377;52.182;5.398;2022-11-20T04:19:21;-3.70;99.90
46652;DHT22;32377;52.182;5.398;2022-11-20T04:21:46;-3.70;99.90
46652;DHT22;32377;52.182;5.398;2022-11-20T04:24:12;-3.80;99.90
46652;DHT22;32377;52.182;5.398;2022-11-20T04:26:38;-3.70;99.90
46652;DHT22;32377;52.182;5.398;2022-11-20T04:29:04;-3.70;99.90
46652;DHT22;32377;52.182;5.398;2022-11-20T04:31:32;-3.70;99.90
46652;DHT22;32377;52.182;5.398;2022-11-20T04:34:06;-3.70;99.90
46652;DHT22;32377;52.182;5.398;2022-11-20T04:36:32;-3.70;99.90
46652;DHT22;32377;52.182;5.398;2022-11-20T04:39:03;-3.80;99.90
46652;DHT22;32377;52.182;5.398;2022-11-20T04:41:32;-3.80;99.90
46652;DHT22;32377;52.182;5.398;2022-11-20T04:43:59;-3.80;99.90
46652;DHT22;32377;52.182;5.398;2022-11-20T04:46:29;-3.90;99.90
46652;DHT22;32377;52.182;5.398;2022-11-20T04:48:55;-3.90;99.90
46652;DHT22;32377;52.182;5.398;2022-11-20T04:51:21;-3.90;99.90
46652;DHT22;32377;52.182;5.398;2022-11-20T04:53:47;-3.90;99.90
46652;DHT22;32377;52.182;5.398;2022-11-20T04:56:13;-3.90;99.90
46652;DHT22;32377;52.182;5.398;2022-11-20T04:58:39;-3.90;99.90
46652;DHT22;32377;52.182;5.398;2022-11-20T05:01:13;-3.90;99.90
46652;DHT22;32377;52.182;5.398;2022-11-20T05:03:43;-3.90;99.90
46652;DHT22;32377;52.182;5.398;2022-11-20T05:06:11;-3.90;99.90
46652;DHT22;32377;52.182;5.398;2022-11-20T05:08:37;-3.90;99.90
46652;DHT22;32377;52.182;5.398;2022-11-20T05:11:08;-3.90;99.90
46652;DHT22;32377;52.182;5.398;2022-11-20T05:13:34;-3.90;99.90
46652;DHT22;32377;52.182;5.398;2022-11-20T05:16:04;-3.90;99.90
46652;DHT22;32377;52.182;5.398;2022-11-20T05:18:31;-3.90;99.90
46652;DHT22;32377;52.182;5.398;2022-11-20T05:20:57;-3.90;99.90
46652;DHT22;32377;52.182;5.398;2022-11-20T05:23:24;-4.00;99.90
46652;DHT22;32377;52.182;5.398;2022-11-20T05:25:53;-3.90;99.90
46652;DHT22;32377;52.182;5.398;2022-11-20T05:28:19;-3.90;99.90
46652;DHT22;32377;52.182;5.398;2022-11-20T05:30:44;-3.90;99.90
46652;DHT22;32377;52.182;5.398;2022-11-20T05:33:10;-3.90;99.90
46652;DHT22;32377;52.182;5.398;2022-11-20T05:35:36;-4.00;99.90
46652;DHT22;32377;52.182;5.398;2022-11-20T05:38:01;-4.00;99.90
46652;DHT22;32377;52.182;5.398;2022-11-20T05:40:27;-4.00;99.90
46652;DHT22;32377;52.182;5.398;2022-11-20T05:42:52;-4.00;99.90
46652;DHT22;32377;52.182;5.398;2022-11-20T05:45:18;-4.00;99.90
46652;DHT22;32377;52.182;5.398;2022-11-20T05:47:43;-4.10;99.90
46652;DHT22;32377;52.182;5.398;2022-11-20T05:50:09;-4.00;99.90
46652;DHT22;32377;52.182;5.398;2022-11-20T05:52:34;-4.10;99.90
46652;DHT22;32377;52.182;5.398;2022-11-20T05:55:00;-4.10;99.90
46652;DHT22;32377;52.182;5.398;2022-11-20T05:57:26;-4.10;99.90
46652;DHT22;32377;52.182;5.398;2022-11-20T05:59:51;-4.20;99.90
46652;DHT22;32377;52.182;5.398;2022-11-20T06:02:17;-4.10;99.90
46652;DHT22;32377;52.182;5.398;2022-11-20T06:04:42;-4.20;99.90
46652;DHT22;32377;52.182;5.398;2022-11-20T06:07:08;-4.20;99.90
46652;DHT22;32377;52.182;5.398;2022-11-20T06:09:33;-4.20;99.90
46652;DHT22;32377;52.182;5.398;2022-11-20T06:11:59;-4.20;99.90
46652;DHT22;32377;52.182;5.398;2022-11-20T06:14:24;-4.20;99.90
46652;DHT22;32377;52.182;5.398;2022-11-20T06:16:50;-4.20;99.90
46652;DHT22;32377;52.182;5.398;2022-11-20T06:19:16;-4.30;99.90
46652;DHT22;32377;52.182;5.398;2022-11-20T06:21:41;-4.20;99.90
46652;DHT22;32377;52.182;5.398;2022-11-20T06:24:09;-4.20;99.90
46652;DHT22;32377;52.182;5.398;2022-11-20T06:26:35;-4.20;99.90
46652;DHT22;32377;52.182;5.398;2022-11-20T06:29:01;-4.30;99.90
46652;DHT22;32377;52.182;5.398;2022-11-20T06:31:27;-4.30;99.90
46652;DHT22;32377;52.182;5.398;2022-11-20T06:33:53;-4.20;99.90
46652;DHT22;32377;52.182;5.398;2022-11-20T06:36:20;-4.20;99.90
46652;DHT22;32377;52.182;5.398;2022-11-20T06:38:48;-4.20;99.90
46652;DHT22;32377;52.182;5.398;2022-11-20T06:41:15;-4.10;99.90
46652;DHT22;32377;52.182;5.398;2022-11-20T06:43:42;-4.20;99.90
46652;DHT22;32377;52.182;5.398;2022-11-20T06:46:10;-4.20;99.90
46652;DHT22;32377;52.182;5.398;2022-11-20T06:48:35;-4.10;99.90
46652;DHT22;32377;52.182;5.398;2022-11-20T06:51:03;-4.10;99.90
46652;DHT22;32377;52.182;5.398;2022-11-20T06:53:29;-4.10;99.90
46652;DHT22;32377;52.182;5.398;2022-11-20T06:55:56;-4.10;99.90
46652;DHT22;32377;52.182;5.398;2022-11-20T06:58:22;-4.10;99.90
46652;DHT22;32377;52.182;5.398;2022-11-20T07:00:47;-4.10;99.90
46652;DHT22;32377;52.182;5.398;2022-11-20T07:03:14;-4.10;99.90
46652;DHT22;32377;52.182;5.398;2022-11-20T07:05:40;-4.10;99.90
46652;DHT22;32377;52.182;5.398;2022-11-20T07:08:06;-4.00;99.90
46652;DHT22;32377;52.182;5.398;2022-11-20T07:10:32;-4.10;99.90
46652;DHT22;32377;52.182;5.398;2022-11-20T07:12:58;-4.00;99.90
46652;DHT22;32377;52.182;5.398;2022-11-20T07:15:24;-4.00;99.90
46652;DHT22;32377;52.182;5.398;2022-11-20T07:17:50;-4.00;99.90
46652;DHT22;32377;52.182;5.398;2022-11-20T07:20:16;-4.00;99.90
46652;DHT22;32377;52.182;5.398;2022-11-20T07:22:42;-4.00;99.90
46652;DHT22;32377;52.182;5.398;2022-11-20T07:25:09;-4.00;99.90
46652;DHT22;32377;52.182;5.398;2022-11-20T07:27:35;-4.00;99.90
46652;DHT22;32377;52.182;5.398;2022-11-20T07:30:02;-3.90;99.90
46652;DHT22;32377;52.182;5.398;2022-11-20T07:32:28;-3.90;99.90
46652;DHT22;32377;52.182;5.398;2022-11-20T07:34:53;-3.90;99.90
46652;DHT22;32377;52.182;5.398;2022-11-20T07:37:19;-3.80;99.90
46652;DHT22;32377;52.182;5.398;2022-11-20T07:39:44;-3.80;99.90
46652;DHT22;32377;52.182;5.398;2022-11-20T07:42:10;-3.80;99.90
46652;DHT22;32377;52.182;5.398;2022-11-20T07:44:37;-3.70;99.90
46652;DHT22;32377;52.182;5.398;2022-11-20T07:47:03;-3.70;99.90
46652;DHT22;32377;52.182;5.398;2022-11-20T07:49:28;-3.70;99.90
46652;DHT22;32377;52.182;5.398;2022-11-20T07:51:54;-3.60;99.90
46652;DHT22;32377;52.182;5.398;2022-11-20T07:54:20;-3.60;99.90
46652;DHT22;32377;52.182;5.398;2022-11-20T07:56:46;-3.60;99.90
46652;DHT22;32377;52.182;5.398;2022-11-20T07:59:12;-3.60;99.90
46652;DHT22;32377;52.182;5.398;2022-11-20T08:01:38;-3.50;99.90
46652;DHT22;32377;52.182;5.398;2022-11-20T08:04:04;-3.50;99.90
46652;DHT22;32377;52.182;5.398;2022-11-20T08:06:30;-3.40;99.90
46652;DHT22;32377;52.182;5.398;2022-11-20T08:08:56;-3.30;99.90
46652;DHT22;32377;52.182;5.398;2022-11-20T08:11:21;-3.30;99.90
46652;DHT22;32377;52.182;5.398;2022-11-20T08:14:06;-3.10;99.90
46652;DHT22;32377;52.182;5.398;2022-11-20T08:16:44;-3.10;99.90
46652;DHT22;32377;52.182;5.398;2022-11-20T08:19:10;-3.00;99.90
46652;DHT22;32377;52.182;5.398;2022-11-20T08:21:36;-3.00;99.90
46652;DHT22;32377;52.182;5.398;2022-11-20T08:24:02;-2.80;99.90
46652;DHT22;32377;52.182;5.398;2022-11-20T08:26:28;-2.70;99.90
46652;DHT22;32377;52.182;5.398;2022-11-20T08:28:55;-2.60;99.90
46652;DHT22;32377;52.182;5.398;2022-11-20T08:31:21;-2.50;99.90
46652;DHT22;32377;52.182;5.398;2022-11-20T08:33:47;-2.40;99.90
46652;DHT22;32377;52.182;5.398;2022-11-20T08:36:13;-2.30;99.90
46652;DHT22;32377;52.182;5.398;2022-11-20T08:38:38;-2.30;99.90
46652;DHT22;32377;52.182;5.398;2022-11-20T08:41:05;-2.30;99.90
46652;DHT22;32377;52.182;5.398;2022-11-20T08:43:50;-2.30;99.90
46652;DHT22;32377;52.182;5.398;2022-11-20T08:46:16;-2.10;99.90
46652;DHT22;32377;52.182;5.398;2022-11-20T08:48:42;-2.10;99.90
46652;DHT22;32377;52.182;5.398;2022-11-20T08:51:08;-2.10;99.90
46652;DHT22;32377;52.182;5.398;2022-11-20T08:53:34;-2.10;99.90
46652;DHT22;32377;52.182;5.398;2022-11-20T08:55:59;-2.00;99.90
46652;DHT22;32377;52.182;5.398;2022-11-20T08:58:25;-1.90;99.90
46652;DHT22;32377;52.182;5.398;2022-11-20T09:00:51;-1.90;99.90
46652;DHT22;32377;52.182;5.398;2022-11-20T09:03:16;-1.90;99.90
46652;DHT22;32377;52.182;5.398;2022-11-20T09:05:42;-1.80;99.90
46652;DHT22;32377;52.182;5.398;2022-11-20T09:08:11;-1.70;99.90
46652;DHT22;32377;52.182;5.398;2022-11-20T09:10:36;-1.70;99.90
46652;DHT22;32377;52.182;5.398;2022-11-20T09:13:05;-1.60;99.90
46652;DHT22;32377;52.182;5.398;2022-11-20T09:15:30;-1.60;99.90
46652;DHT22;32377;52.182;5.398;2022-11-20T09:17:58;-1.50;99.90
46652;DHT22;32377;52.182;5.398;2022-11-20T09:20:25;-1.40;99.90
46652;DHT22;32377;52.182;5.398;2022-11-20T09:22:51;-1.40;99.90
46652;DHT22;32377;52.182;5.398;2022-11-20T09:25:17;-1.40;99.90
46652;DHT22;32377;52.182;5.398;2022-11-20T09:27:43;-1.40;99.90
46652;DHT22;32377;52.182;5.398;2022-11-20T09:32:41;-1.20;99.90
46652;DHT22;32377;52.182;5.398;2022-11-20T09:35:08;-1.10;99.90
46652;DHT22;32377;52.182;5.398;2022-11-20T09:37:34;-1.10;99.90
46652;DHT22;32377;52.182;5.398;2022-11-20T09:39:59;-1.00;99.90
46652;DHT22;32377;52.182;5.398;2022-11-20T09:42:32;-0.90;99.90
46652;DHT22;32377;52.182;5.398;2022-11-20T09:45:02;-0.80;99.90
46652;DHT22;32377;52.182;5.398;2022-11-20T09:48:34;-0.80;99.90
46652;DHT22;32377;52.182;5.398;2022-11-20T09:50:55;-0.60;99.90
46652;DHT22;32377;52.182;5.398;2022-11-20T09:53:40;-0.50;99.90
46652;DHT22;32377;52.182;5.398;2022-11-20T09:56:11;-0.50;99.90
46652;DHT22;32377;52.182;5.398;2022-11-20T09:58:45;-0.40;99.90
46652;DHT22;32377;52.182;5.398;2022-11-20T10:01:15;-0.40;99.90
46652;DHT22;32377;52.182;5.398;2022-11-20T10:03:58;-0.30;99.90
46652;DHT22;32377;52.182;5.398;2022-11-20T10:06:37;-0.20;99.90
46652;DHT22;32377;52.182;5.398;2022-11-20T10:09:34;-0.20;99.90
46652;DHT22;32377;52.182;5.398;2022-11-20T10:12:19;-0.20;99.90
46652;DHT22;32377;52.182;5.398;2022-11-20T10:15:17;-0.10;99.90
46652;DHT22;32377;52.182;5.398;2022-11-20T10:23:27;0.10;99.90
46652;DHT22;32377;52.182;5.398;2022-11-20T10:26:04;0.20;99.90
46652;DHT22;32377;52.182;5.398;2022-11-20T10:29:12;0.30;99.90
46652;DHT22;32377;52.182;5.398;2022-11-20T10:31:45;0.40;99.90
46652;DHT22;32377;52.182;5.398;2022-11-20T10:34:28;0.50;99.90
46652;DHT22;32377;52.182;5.398;2022-11-20T10:36:59;0.50;99.90
46652;DHT22;32377;52.182;5.398;2022-11-20T10:42:47;0.50;99.90
46652;DHT22;32377;52.182;5.398;2022-11-20T10:50:30;0.60;99.90
46652;DHT22;32377;52.182;5.398;2022-11-20T10:55:33;0.70;99.90
46652;DHT22;32377;52.182;5.398;2022-11-20T10:58:13;0.80;99.90
46652;DHT22;32377;52.182;5.398;2022-11-20T11:00:39;0.80;99.90
46652;DHT22;32377;52.182;5.398;2022-11-20T11:05:51;0.90;99.90
46652;DHT22;32377;52.182;5.398;2022-11-20T11:08:20;0.90;99.90
46652;DHT22;32377;52.182;5.398;2022-11-20T11:10:57;1.00;99.90
46652;DHT22;32377;52.182;5.398;2022-11-20T11:13:30;1.10;99.90
46652;DHT22;32377;52.182;5.398;2022-11-20T11:15:56;1.10;99.90
46652;DHT22;32377;52.182;5.398;2022-11-20T11:18:30;1.20;99.90
46652;DHT22;32377;52.182;5.398;2022-11-20T11:20:59;1.30;99.90
46652;DHT22;32377;52.182;5.398;2022-11-20T11:23:42;1.30;99.90
46652;DHT22;32377;52.182;5.398;2022-11-20T11:26:24;1.30;99.90
46652;DHT22;32377;52.182;5.398;2022-11-20T11:29:01;1.30;99.90
46652;DHT22;32377;52.182;5.398;2022-11-20T11:31:31;1.30;99.90
46652;DHT22;32377;52.182;5.398;2022-11-20T11:34:07;1.30;99.90
46652;DHT22;32377;52.182;5.398;2022-11-20T11:36:36;1.40;99.90
46652;DHT22;32377;52.182;5.398;2022-11-20T11:39:03;1.50;99.90
46652;DHT22;32377;52.182;5.398;2022-11-20T11:41:32;1.50;99.90
46652;DHT22;32377;52.182;5.398;2022-11-20T11:44:19;1.50;99.90
46652;DHT22;32377;52.182;5.398;2022-11-20T11:47:08;1.50;99.90
46652;DHT22;32377;52.182;5.398;2022-11-20T11:49:35;1.60;99.90
46652;DHT22;32377;52.182;5.398;2022-11-20T11:52:11;1.60;99.90
46652;DHT22;32377;52.182;5.398;2022-11-20T11:54:59;1.60;99.90
46652;DHT22;32377;52.182;5.398;2022-11-20T11:57:34;1.60;99.90
46652;DHT22;32377;52.182;5.398;2022-11-20T12:00:09;1.70;99.90
46652;DHT22;32377;52.182;5.398;2022-11-20T12:05:21;1.70;99.90
46652;DHT22;32377;52.182;5.398;2022-11-20T12:07:58;1.80;99.90
46652;DHT22;32377;52.182;5.398;2022-11-20T12:13:24;1.90;99.90
46652;DHT22;32377;52.182;5.398;2022-11-20T12:15:51;1.90;99.90
46652;DHT22;32377;52.182;5.398;2022-11-20T12:18:19;1.90;99.90
46652;DHT22;32377;52.182;5.398;2022-11-20T12:21:09;2.00;99.90
46652;DHT22;32377;52.182;5.398;2022-11-20T12:26:19;2.00;99.90
46652;DHT22;32377;52.182;5.398;2022-11-20T12:29:07;2.10;99.90
46652;DHT22;32377;52.182;5.398;2022-11-20T12:32:18;2.20;99.90
46652;DHT22;32377;52.182;5.398;2022-11-20T12:34:56;2.20;99.90
46652;DHT22;32377;52.182;5.398;2022-11-20T12:37:38;2.20;99.90
46652;DHT22;32377;52.182;5.398;2022-11-20T12:43:20;2.20;99.90
46652;DHT22;32377;52.182;5.398;2022-11-20T12:46:33;2.30;99.90
46652;DHT22;32377;52.182;5.398;2022-11-20T12:51:54;2.20;99.90
46652;DHT22;32377;52.182;5.398;2022-11-20T12:54:50;2.20;99.90
46652;DHT22;32377;52.182;5.398;2022-11-20T12:57:31;2.30;99.90
46652;DHT22;32377;52.182;5.398;2022-11-20T13:00:25;2.20;99.90
46652;DHT22;32377;52.182;5.398;2022-11-20T13:03:07;2.20;99.90
46652;DHT22;32377;52.182;5.398;2022-11-20T13:05:51;2.30;99.90
46652;DHT22;32377;52.182;5.398;2022-11-20T13:08:27;2.30;99.90
46652;DHT22;32377;52.182;5.398;2022-11-20T13:14:11;2.20;99.90
46652;DHT22;32377;52.182;5.398;2022-11-20T13:19:17;2.20;99.90
46652;DHT22;32377;52.182;5.398;2022-11-20T13:21:48;2.20;99.90
46652;DHT22;32377;52.182;5.398;2022-11-20T13:24:25;2.20;99.90
46652;DHT22;32377;52.182;5.398;2022-11-20T13:29:58;2.20;99.90
46652;DHT22;32377;52.182;5.398;2022-11-20T13:32:25;2.20;99.90
46652;DHT22;32377;52.182;5.398;2022-11-20T13:34:56;2.30;99.90
46652;DHT22;32377;52.182;5.398;2022-11-20T13:37:31;2.20;99.90
46652;DHT22;32377;52.182;5.398;2022-11-20T13:45:30;2.30;99.90
46652;DHT22;32377;52.182;5.398;2022-11-20T13:47:57;2.20;99.90
46652;DHT22;32377;52.182;5.398;2022-11-20T13:53:48;2.20;99.90
46652;DHT22;32377;52.182;5.398;2022-11-20T13:56:48;2.20;99.90
46652;DHT22;32377;52.182;5.398;2022-11-20T14:02:20;2.20;99.90
46652;DHT22;32377;52.182;5.398;2022-11-20T14:04:51;2.30;99.90
46652;DHT22;32377;52.182;5.398;2022-11-20T14:07:20;2.30;99.90
46652;DHT22;32377;52.182;5.398;2022-11-20T14:09:55;2.30;99.90
46652;DHT22;32377;52.182;5.398;2022-11-20T14:12:29;2.20;99.90
46652;DHT22;32377;52.182;5.398;2022-11-20T14:14:55;2.30;99.90
46652;DHT22;32377;52.182;5.398;2022-11-20T14:17:33;2.30;99.90
46652;DHT22;32377;52.182;5.398;2022-11-20T14:20:02;2.20;99.90
46652;DHT22;32377;52.182;5.398;2022-11-20T14:22:28;2.20;99.90
46652;DHT22;32377;52.182;5.398;2022-11-20T14:27:28;2.20;99.90
46652;DHT22;32377;52.182;5.398;2022-11-20T14:29:54;2.20;99.90
46652;DHT22;32377;52.182;5.398;2022-11-20T14:32:26;2.20;99.90
46652;DHT22;32377;52.182;5.398;2022-11-20T14:34:53;2.20;99.90
46652;DHT22;32377;52.182;5.398;2022-11-20T14:37:24;2.20;99.90
46652;DHT22;32377;52.182;5.398;2022-11-20T14:39:52;2.20;99.90
46652;DHT22;32377;52.182;5.398;2022-11-20T14:42:29;2.30;99.90
46652;DHT22;32377;52.182;5.398;2022-11-20T14:44:58;2.30;99.90
46652;DHT22;32377;52.182;5.398;2022-11-20T14:47:30;2.30;99.90
46652;DHT22;32377;52.182;5.398;2022-11-20T14:49:57;2.20;99.90
46652;DHT22;32377;52.182;5.398;2022-11-20T14:52:26;2.20;99.90
46652;DHT22;32377;52.182;5.398;2022-11-20T14:54:57;2.20;99.90
46652;DHT22;32377;52.182;5.398;2022-11-20T14:57:33;2.30;99.90
46652;DHT22;32377;52.182;5.398;2022-11-20T15:02:44;2.20;99.90
46652;DHT22;32377;52.182;5.398;2022-11-20T15:05:13;2.20;99.90
46652;DHT22;32377;52.182;5.398;2022-11-20T15:07:41;2.20;99.90
46652;DHT22;32377;52.182;5.398;2022-11-20T15:12:53;2.20;99.90
46652;DHT22;32377;52.182;5.398;2022-11-20T15:15:32;2.20;99.90
46652;DHT22;32377;52.182;5.398;2022-11-20T15:17:59;2.20;99.90
46652;DHT22;32377;52.182;5.398;2022-11-20T15:20:28;2.20;99.90
46652;DHT22;32377;52.182;5.398;2022-11-20T15:22:55;2.20;99.90
46652;DHT22;32377;52.182;5.398;2022-11-20T15:25:21;2.20;99.90
46652;DHT22;32377;52.182;5.398;2022-11-20T15:27:50;2.20;99.90
46652;DHT22;32377;52.182;5.398;2022-11-20T15:30:20;2.20;99.90
46652;DHT22;32377;52.182;5.398;2022-11-20T15:32:47;2.20;99.90
46652;DHT22;32377;52.182;5.398;2022-11-20T15:35:14;2.20;99.90
46652;DHT22;32377;52.182;5.398;2022-11-20T15:37:40;2.20;99.90
46652;DHT22;32377;52.182;5.398;2022-11-20T15:40:07;2.20;99.90
46652;DHT22;32377;52.182;5.398;2022-11-20T15:42:33;2.20;99.90
46652;DHT22;32377;52.182;5.398;2022-11-20T15:44:59;2.20;99.90
46652;DHT22;32377;52.182;5.398;2022-11-20T15:47:30;2.20;99.90
46652;DHT22;32377;52.182;5.398;2022-11-20T15:49:56;2.20;99.90
46652;DHT22;32377;52.182;5.398;2022-11-20T15:52:22;2.20;99.90
46652;DHT22;32377;52.182;5.398;2022-11-20T15:54:47;2.20;99.90
46652;DHT22;32377;52.182;5.398;2022-11-20T15:57:13;2.10;99.90
46652;DHT22;32377;52.182;5.398;2022-11-20T15:59:39;2.20;99.90
46652;DHT22;32377;52.182;5.398;2022-11-20T16:02:11;2.20;99.90
46652;DHT22;32377;52.182;5.398;2022-11-20T16:04:36;2.20;99.90
46652;DHT22;32377;52.182;5.398;2022-11-20T16:07:02;2.20;99.90
46652;DHT22;32377;52.182;5.398;2022-11-20T16:09:28;2.20;99.90
46652;DHT22;32377;52.182;5.398;2022-11-20T16:11:53;2.20;99.90
46652;DHT22;32377;52.182;5.398;2022-11-20T16:14:19;2.20;99.90
46652;DHT22;32377;52.182;5.398;2022-11-20T16:17:03;2.20;99.90
46652;DHT22;32377;52.182;5.398;2022-11-20T16:19:29;2.20;99.90
46652;DHT22;32377;52.182;5.398;2022-11-20T16:21:54;2.10;99.90
46652;DHT22;32377;52.182;5.398;2022-11-20T16:24:20;2.20;99.90
46652;DHT22;32377;52.182;5.398;2022-11-20T16:26:45;2.20;99.90
46652;DHT22;32377;52.182;5.398;2022-11-20T16:29:11;2.20;99.90
46652;DHT22;32377;52.182;5.398;2022-11-20T16:31:37;2.20;99.90
46652;DHT22;32377;52.182;5.398;2022-11-20T16:34:05;2.10;99.90
46652;DHT22;32377;52.182;5.398;2022-11-20T16:36:31;2.20;99.90
46652;DHT22;32377;52.182;5.398;2022-11-20T16:38:59;2.20;99.90
46652;DHT22;32377;52.182;5.398;2022-11-20T16:41:26;2.30;99.90
46652;DHT22;32377;52.182;5.398;2022-11-20T16:43:54;2.20;99.90
46652;DHT22;32377;52.182;5.398;2022-11-20T16:46:23;2.20;99.90
46652;DHT22;32377;52.182;5.398;2022-11-20T16:48:54;2.20;99.90
46652;DHT22;32377;52.182;5.398;2022-11-20T16:51:20;2.30;99.90
46652;DHT22;32377;52.182;5.398;2022-11-20T16:53:45;2.30;99.90
46652;DHT22;32377;52.182;5.398;2022-11-20T16:56:16;2.30;99.90
46652;DHT22;32377;52.182;5.398;2022-11-20T16:58:43;2.30;99.90